Decoded Metar for PASK (SELAWIK in AK, USA) (IATA:WLK) | Meteo·Mobile Aviation Weather
aviador You're here:

PASK Decoded Metar

SELAWIK in AK, USA
Report Time2018-10-23 21:56:00
UTC Time2018-10-23 22:15:22
Flight Rules vfr VFR
Wind060° at 04 kt
W.Decomp.*RWY 04: 4.0 kt HW 0.3 kt RCW
RWY 09: 2.8 kt HW 2.9 kt LCW
W.Rank060° ranks 2
Current wind is below 060° avg. (9.7)
Visibility9999 m
Phenomena:N/A
Clouds:N/A
Expected CloudBase > 2,000 ft AGL from Temp-Dew spread
CeilingNone
Temp02°C (ISA -13)
Dew Point-3°C (70% RH)
AAT-1.8°C
QNH992 hPa
Density Alt-758 ft
Elevation26 ft
Report Wrong Elevation
Raw Report
PASK 232156Z AUTO 06004KT 10SM CLR 02/M03 A2930 RMK AO2 SLP921
T00171028 FZRANO $=

Extra information for PASK:More info

Metar Taf Metar & Taf Last 4 Metars F.Rules Stats Wind Profile Meteogram Temp Stats Airport Information Weather charts Add Link Nearby VenuesMetar ALERT Operation Metar Decoded Social comments

AIRNAV info for PASK